createdAt,value
2019-05-02T00:01:11.402Z,6.78
2019-05-02T00:03:42.950Z,4.97
2019-05-02T00:06:15.241Z,5.03
2019-05-02T00:08:46.347Z,10.50
2019-05-02T00:11:18.068Z,6.35
2019-05-02T00:13:49.128Z,9.40
2019-05-02T00:16:20.258Z,15.32
2019-05-02T00:18:51.404Z,8.43
2019-05-02T00:21:22.683Z,6.12
2019-05-02T00:23:53.775Z,8.43
2019-05-02T00:26:25.851Z,7.67
2019-05-02T00:28:57.397Z,7.20
2019-05-02T00:31:28.573Z,7.97
2019-05-02T00:33:59.942Z,7.80
2019-05-02T00:36:31.078Z,13.75
2019-05-02T00:39:02.191Z,8.08
2019-05-02T00:41:38.451Z,7.67
2019-05-02T00:44:10.951Z,8.78
2019-05-02T00:46:40.546Z,6.10
2019-05-02T00:49:11.659Z,5.60
2019-05-02T00:51:42.792Z,5.35
2019-05-02T00:54:13.966Z,6.70
2019-05-02T00:56:45.400Z,7.65
2019-05-02T00:59:16.620Z,5.15
2019-05-02T01:01:52.896Z,5.08
2019-05-02T01:04:34.411Z,9.65
2019-05-02T01:07:06.267Z,6.40
2019-05-02T01:09:37.412Z,7.30
2019-05-02T01:12:10.073Z,13.08
2019-05-02T01:14:41.179Z,11.63
2019-05-02T01:17:12.285Z,8.58
2019-05-02T01:19:47.151Z,6.47
2019-05-02T01:22:17.214Z,6.35
2019-05-02T01:24:48.570Z,6.10
2019-05-02T01:27:22.264Z,7.75
2019-05-02T01:29:54.921Z,11.53
2019-05-02T01:32:30.065Z,9.93
2019-05-02T01:35:04.596Z,8.80
2019-05-02T01:37:54.904Z,11.28
2019-05-02T01:40:26.420Z,11.53
2019-05-02T01:42:57.739Z,17.27
2019-05-02T01:45:28.828Z,11.28
2019-05-02T01:48:00.106Z,10.15
2019-05-02T01:50:33.607Z,9.55
2019-05-02T01:53:03.968Z,7.03
2019-05-02T01:55:35.055Z,10.88
2019-05-02T01:58:06.197Z,16.35
2019-05-02T02:00:40.864Z,12.80
2019-05-02T02:05:42.259Z,19.20
2019-05-02T02:08:13.400Z,18.30
2019-05-02T02:10:44.478Z,17.90
2019-05-02T02:13:15.656Z,28.07
2019-05-02T02:15:46.833Z,41.48
2019-05-02T02:18:22.296Z,32.05
2019-05-02T02:20:59.444Z,33.40
2019-05-02T02:23:35.217Z,34.43
2019-05-02T02:26:12.200Z,22.27
2019-05-02T02:28:44.423Z,31.65
2019-05-02T02:31:15.868Z,26.68
2019-05-02T02:33:49.721Z,22.07
2019-05-02T02:36:29.508Z,17.02
2019-05-02T02:38:53.018Z,12.20
2019-05-02T02:41:24.144Z,13.53
2019-05-02T02:44:08.927Z,8.78
2019-05-02T02:46:47.795Z,10.05
2019-05-02T02:49:21.672Z,9.65
2019-05-02T02:51:58.181Z,10.10
2019-05-02T02:54:24.678Z,8.25
2019-05-02T02:56:55.854Z,6.60
2019-05-02T02:59:28.301Z,6.17
2019-05-02T03:02:08.690Z,5.53
2019-05-02T03:04:32.403Z,6.62
2019-05-02T03:07:03.547Z,8.15
2019-05-02T03:09:34.688Z,6.70
2019-05-02T03:12:22.402Z,6.53
2019-05-02T03:14:55.535Z,9.93
2019-05-02T03:17:28.711Z,6.95
2019-05-02T03:20:01.851Z,9.95
2019-05-02T03:22:34.753Z,6.05
2019-05-02T03:25:06.280Z,8.63
2019-05-02T03:27:40.205Z,7.60
2019-05-02T03:30:28.773Z,13.30
2019-05-02T03:33:03.552Z,8.55
2019-05-02T03:35:18.595Z,9.38
2019-05-02T03:37:51.361Z,16.07
2019-05-02T03:40:23.659Z,14.93
2019-05-02T03:42:54.929Z,15.55
2019-05-02T03:45:32.091Z,14.13
2019-05-02T03:47:58.825Z,15.25
2019-05-02T03:50:32.381Z,19.75
2019-05-02T03:53:02.895Z,14.73
2019-05-02T03:55:34.912Z,12.18
2019-05-02T03:58:13.461Z,12.23
2019-05-02T04:00:39.193Z,12.98
2019-05-02T04:03:10.363Z,9.55
2019-05-02T04:05:42.309Z,8.48
2019-05-02T04:08:20.787Z,11.55
2019-05-02T04:10:52.738Z,11.35
2019-05-02T04:13:24.205Z,7.97
2019-05-02T04:15:55.321Z,6.83
2019-05-02T04:18:26.532Z,11.78
2019-05-02T04:20:57.935Z,7.42
2019-05-02T04:23:29.915Z,7.95
2019-05-02T04:26:06.829Z,10.28
2019-05-02T04:28:35.271Z,8.75
2019-05-02T04:31:06.559Z,10.00
2019-05-02T04:33:37.731Z,13.72
2019-05-02T04:36:15.163Z,11.08
2019-05-02T04:41:18.891Z,17.82
2019-05-02T04:43:54.764Z,9.83
2019-05-02T04:46:27.085Z,12.73
2019-05-02T04:48:53.408Z,10.23
2019-05-02T04:51:27.811Z,11.35
2019-05-02T04:53:58.834Z,8.40
2019-05-02T04:56:30.430Z,9.03
2019-05-02T04:59:02.275Z,10.53
2019-05-02T05:01:43.550Z,9.35
2019-05-02T05:04:08.275Z,11.08
2019-05-02T05:06:40.897Z,9.73
2019-05-02T05:09:14.719Z,10.80
2019-05-02T05:14:17.999Z,11.18
2019-05-02T05:16:51.691Z,11.83
2019-05-02T05:19:22.929Z,18.65
2019-05-02T05:21:56.711Z,11.12
2019-05-02T05:24:32.827Z,13.68
2019-05-02T05:27:02.157Z,14.30
2019-05-02T05:29:33.445Z,12.60
2019-05-02T05:32:07.846Z,15.32
2019-05-02T05:37:13.406Z,16.50
2019-05-02T05:39:42.959Z,10.55
2019-05-02T05:42:23.108Z,9.38
2019-05-02T05:44:53.507Z,18.67
2019-05-02T05:47:24.762Z,11.68
2019-05-02T05:49:57.675Z,13.85
2019-05-02T05:54:59.170Z,12.03
2019-05-02T05:57:30.303Z,13.28
2019-05-02T06:00:03.674Z,11.78
2019-05-02T06:02:50.834Z,12.88
2019-05-02T06:07:43.381Z,13.75
2019-05-02T06:10:12.805Z,11.40
2019-05-02T06:12:43.922Z,13.05
2019-05-02T06:15:15.119Z,11.70
2019-05-02T06:17:46.319Z,18.45
2019-05-02T06:20:17.535Z,12.23
2019-05-02T06:22:48.705Z,12.65
2019-05-02T06:25:32.639Z,16.37
2019-05-02T06:27:54.762Z,11.83
2019-05-02T06:30:27.153Z,12.20
2019-05-02T06:35:29.307Z,12.53
2019-05-02T06:38:00.446Z,12.03
2019-05-02T06:40:31.683Z,13.95
2019-05-02T06:43:09.806Z,11.78
2019-05-02T06:45:39.565Z,9.30
2019-05-02T06:48:16.872Z,10.88
2019-05-02T06:50:43.698Z,13.22
2019-05-02T06:53:14.953Z,9.60
2019-05-02T06:55:46.118Z,10.78
2019-05-02T06:58:17.475Z,7.95
2019-05-02T07:00:57.269Z,8.10
2019-05-02T07:03:21.438Z,8.58
2019-05-02T07:05:52.563Z,11.83
2019-05-02T07:08:24.531Z,7.83
2019-05-02T07:11:00.652Z,9.60
2019-05-02T07:13:30.985Z,9.88
2019-05-02T07:18:47.659Z,13.72
2019-05-02T07:21:18.015Z,14.13
2019-05-02T07:23:53.469Z,10.15
2019-05-02T07:26:23.272Z,9.10
2019-05-02T07:31:25.134Z,9.78
2019-05-02T07:33:56.277Z,9.78
2019-05-02T07:36:31.205Z,9.18
2019-05-02T07:41:33.583Z,9.98
2019-05-02T07:44:04.984Z,12.82
2019-05-02T07:46:36.195Z,9.33
2019-05-02T07:49:07.552Z,10.53
2019-05-02T07:51:39.782Z,14.78
2019-05-02T07:54:10.969Z,11.10
2019-05-02T07:56:42.197Z,12.05
2019-05-02T07:59:13.441Z,13.53
2019-05-02T08:01:44.846Z,15.03
2019-05-02T08:04:17.465Z,18.98
2019-05-02T08:06:48.604Z,14.73
2019-05-02T08:11:51.854Z,19.35
2019-05-02T08:14:23.276Z,19.55
2019-05-02T08:17:04.970Z,16.30
2019-05-02T08:21:58.841Z,15.75
2019-05-02T08:24:33.049Z,16.37
2019-05-02T08:27:06.845Z,14.23
2019-05-02T08:32:09.960Z,11.53
2019-05-02T08:34:46.033Z,23.32
2019-05-02T08:39:55.889Z,16.97
2019-05-02T08:42:27.671Z,12.30
2019-05-02T08:50:08.365Z,14.85
2019-05-02T08:52:42.403Z,10.98
2019-05-02T08:55:15.287Z,16.52
2019-05-02T08:57:53.854Z,8.55
2019-05-02T09:00:24.966Z,10.68
2019-05-02T09:03:02.414Z,13.90
2019-05-02T09:08:01.072Z,9.25
2019-05-02T09:10:37.084Z,10.13
2019-05-02T09:15:51.172Z,14.10
2019-05-02T09:18:22.327Z,14.38
2019-05-02T09:20:56.623Z,13.38
2019-05-02T09:23:35.385Z,12.03
2019-05-02T09:26:02.593Z,14.70
2019-05-02T09:28:34.191Z,12.50
2019-05-02T09:31:06.837Z,13.18
2019-05-02T09:33:42.488Z,15.03
2019-05-02T09:36:11.952Z,13.93
2019-05-02T09:38:43.553Z,14.23
2019-05-02T09:41:19.060Z,14.63
2019-05-02T09:43:47.839Z,15.05
2019-05-02T09:46:18.959Z,15.18
2019-05-02T09:48:51.863Z,14.07
2019-05-02T09:53:57.095Z,18.40
2019-05-02T09:56:26.305Z,15.53
2019-05-02T09:59:06.212Z,21.20
2019-05-02T14:00:33.837Z,24.60
2019-05-02T14:03:07.484Z,12.95
2019-05-02T14:05:49.180Z,14.40
2019-05-02T14:08:22.367Z,2.98
2019-05-02T14:11:07.030Z,23.12
2019-05-02T14:13:39.799Z,30.55
2019-05-02T14:16:12.187Z,4.30
2019-05-02T14:18:47.038Z,5.78
2019-05-02T14:21:18.433Z,9.73
2019-05-02T14:23:51.687Z,10.43
2019-05-02T14:28:54.807Z,8.38
2019-05-02T14:31:29.388Z,2.95
2019-05-02T14:34:18.028Z,1.92
2019-05-02T14:36:49.231Z,3.08
2019-05-02T14:39:20.376Z,5.67
2019-05-02T14:41:53.584Z,2.98
2019-05-02T14:44:36.253Z,3.52
2019-05-02T14:47:02.564Z,5.75
2019-05-02T14:49:33.777Z,4.35
2019-05-02T14:52:07.058Z,4.85
2019-05-02T14:57:12.341Z,5.90
2019-05-02T15:02:16.860Z,7.97
2019-05-02T15:07:24.829Z,9.78
2019-05-02T15:09:57.278Z,11.00
2019-05-02T15:12:27.079Z,5.15
2019-05-02T15:14:59.829Z,15.40
2019-05-02T15:17:36.258Z,13.38
2019-05-02T15:20:05.398Z,19.02
2019-05-02T15:25:13.632Z,13.13
2019-05-02T15:27:50.014Z,16.25
2019-05-02T15:30:19.297Z,6.20
2019-05-02T15:32:57.976Z,8.45
2019-05-02T15:35:35.923Z,8.73
2019-05-02T15:38:07.031Z,10.95
2019-05-02T15:40:47.388Z,7.97
2019-05-02T15:43:13.847Z,8.63
2019-05-02T15:45:45.493Z,9.83
2019-05-02T15:48:22.774Z,10.13
2019-05-02T15:50:52.935Z,9.75
2019-05-02T15:53:25.315Z,10.35
2019-05-02T15:55:56.500Z,8.43
2019-05-02T15:58:28.148Z,10.15
2019-05-02T16:01:17.762Z,9.93
2019-05-02T16:03:53.703Z,13.05
2019-05-02T16:06:30.754Z,12.15
2019-05-02T16:08:58.549Z,14.47
2019-05-02T16:11:29.667Z,16.97
2019-05-02T16:14:02.310Z,14.28
2019-05-02T16:16:36.598Z,11.30
2019-05-02T16:19:06.727Z,8.95
2019-05-02T16:32:03.568Z,15.45
2019-05-02T16:34:36.895Z,10.95
2019-05-02T16:37:16.740Z,16.97
2019-05-02T16:39:49.490Z,9.30
2019-05-02T16:49:56.565Z,16.05
2019-05-02T16:52:28.042Z,24.35
2019-05-02T16:54:59.366Z,20.37
2019-05-02T17:07:44.040Z,26.75
2019-05-02T17:10:19.802Z,27.75
2019-05-02T17:12:55.424Z,14.87
2019-05-02T17:23:07.203Z,45.50
2019-05-02T17:25:36.828Z,21.45
2019-05-02T17:28:10.486Z,23.35
2019-05-02T17:56:05.130Z,11.22
2019-05-02T17:58:36.265Z,16.73
2019-05-02T18:01:09.023Z,15.48
2019-05-02T18:03:42.372Z,22.25
2019-05-02T19:09:17.555Z,13.95
2019-05-02T19:11:45.973Z,15.72
2019-05-02T19:14:22.227Z,12.70
2019-05-02T19:16:51.984Z,16.40
2019-05-02T19:19:22.786Z,19.57
2019-05-02T19:21:54.105Z,13.50
2019-05-02T19:24:27.496Z,7.15
2019-05-02T19:26:57.998Z,9.30
2019-05-02T19:29:31.774Z,17.12
2019-05-02T19:32:02.840Z,8.45
2019-05-02T19:34:33.998Z,12.70
2019-05-02T19:37:05.142Z,11.53
